Time;durP1;ratioP1;P1;durP2;ratioP2;P2;SDS_P1;SDS_P2;PMS_P1;PMS_P2;Temp;Humidity;BMP_temperature;BMP_pressure;BME280_temperature;BME280_humidity;BME280_pressure;Samples;Min_cycle;Max_cycle;Signal;HPM_P1;HPM_P2
2023/11/11 00:01:40;;;;;;;;;;;;;;;;;;4952266;28;19926;-78
2023/11/11 00:04:06;;;;;;;;;;;;;;;;;;4958757;28;20012;-80
2023/11/11 00:06:32;;;;;;;;;;;;;;;;;;4956486;28;20327;-79
2023/11/11 00:08:59;;;;;;;;;;;;;;;;;;4941558;28;20438;-78
2023/11/11 00:11:25;;;;;;;;;;;;;;;;;;4946473;28;19938;-80
2023/11/11 00:13:52;;;;;;;;;;;;;;;;;;4958248;28;19926;-78
2023/11/11 00:16:18;;;;;;;;;;;;;;;;;;4956775;28;19926;-78
2023/11/11 00:18:45;;;;;;;;;;;;;;;;;;4958197;28;20292;-79
2023/11/11 00:21:11;;;;;;;;;;;;;;;;;;4946988;28;19982;-80
2023/11/11 00:23:38;;;;;;;;;;;;;;;;;;4959821;28;19926;-78
2023/11/11 00:26:04;;;;;;;;;;;;;;;;;;4943661;29;20025;-78
2023/11/11 00:28:31;;;;;;;;;;;;;;;;;;4938763;28;19962;-78
2023/11/11 00:30:57;;;;;;;;;;;;;;;;;;4960248;28;20776;-78
2023/11/11 00:33:25;;;;;;;;;;;;;;;;;;4962181;28;19931;-80
2023/11/11 00:35:51;;;;;;;;;;;;;;;;;;4943746;28;19930;-80
2023/11/11 00:38:18;;;;;;;;;;;;;;;;;;4957829;28;19926;-79
2023/11/11 00:40:44;;;;;;;;;;;;;;;;;;4957158;28;20494;-78
2023/11/11 00:43:11;;;;;;;;;;;;;;;;;;4948828;28;19926;-79
2023/11/11 00:45:38;;;;;;;;;;;;;;;;;;4944238;28;19930;-81
2023/11/11 00:48:04;;;;;;;;;;;;;;;;;;4945550;28;19930;-81
2023/11/11 00:50:31;;;;;;;;;;;;;;;;;;4951154;28;19932;-80
2023/11/11 00:52:59;;;;;;;;;;;;;;;;;;4942569;28;20021;-79
2023/11/11 00:55:27;;;;;;;;;;;;;;;;;;4961207;28;20033;-79
2023/11/11 00:57:53;;;;;;;;;;;;;;;;;;4951016;28;20433;-78
2023/11/11 01:00:21;;;;;;;;;;;;;;;;;;4942955;28;20021;-80
2023/11/11 01:02:50;;;;;;;;;;;;;;;;;;4943542;28;20013;-79
2023/11/11 01:05:19;;;;;;;;;;;;;;;;;;4959783;28;19933;-80
2023/11/11 01:07:45;;;;;;;;;;;;;;;;;;4951601;28;19948;-80
2023/11/11 01:10:11;;;;;;;;;;;;;;;;;;4938552;28;19982;-80
2023/11/11 01:12:38;;;;;;;;;;;;;;;;;;4959519;28;19930;-80
2023/11/11 01:15:08;;;;;;;;;;;;;;;;;;4960660;28;19957;-80
2023/11/11 01:17:35;;;;;;;;;;;;;;;;;;4951209;28;19930;-83
2023/11/11 01:20:02;;;;;;;;;;;;;;;;;;4937266;28;20403;-79
2023/11/11 01:22:30;;;;;;;;;;;;;;;;;;4955795;28;19934;-79
2023/11/11 01:24:57;;;;;;;;;;;;;;;;;;4958162;28;19926;-77
2023/11/11 01:27:23;;;;;;;;;;;;;;;;;;4939088;28;20126;-77
2023/11/11 01:29:50;;;;;;;;;;;;;;;;;;4942115;28;20486;-79
2023/11/11 01:32:17;;;;;;;;;;;;;;;;;;4955165;28;19926;-80
2023/11/11 01:34:43;;;;;;;;;;;;;;;;;;4958282;28;19927;-79
2023/11/11 01:37:10;;;;;;;;;;;;;;;;;;4938313;28;20347;-80
2023/11/11 01:39:36;;;;;;;;;;;;;;;;;;4957571;28;20029;-80
2023/11/11 01:42:03;;;;;;;;;;;;;;;;;;4959877;28;19927;-79
2023/11/11 01:44:30;;;;;;;;;;;;;;;;;;4940791;28;19933;-80
2023/11/11 01:46:56;;;;;;;;;;;;;;;;;;4948174;28;19978;-80
2023/11/11 01:49:23;;;;;;;;;;;;;;;;;;4957498;28;19961;-81
2023/11/11 01:51:51;;;;;;;;;;;;;;;;;;4940892;28;19930;-79
2023/11/11 01:54:18;;;;;;;;;;;;;;;;;;4949509;28;19926;-80
2023/11/11 01:56:44;;;;;;;;;;;;;;;;;;4963010;28;20343;-81
2023/11/11 01:59:11;;;;;;;;;;;;;;;;;;4963309;28;20057;-81
2023/11/11 02:01:37;;;;;;;;;;;;;;;;;;4958858;28;19934;-79
2023/11/11 02:04:04;;;;;;;;;;;;;;;;;;4960376;28;19969;-80
2023/11/11 02:06:31;;;;;;;;;;;;;;;;;;4940794;28;20422;-80
2023/11/11 02:08:57;;;;;;;;;;;;;;;;;;4958879;28;19933;-80
2023/11/11 02:11:24;;;;;;;;;;;;;;;;;;4944115;28;20017;-80
2023/11/11 02:13:50;;;;;;;;;;;;;;;;;;4961123;28;19958;-78
2023/11/11 02:16:16;;;;;;;;;;;;;;;;;;4948055;28;19931;-78
2023/11/11 02:18:43;;;;;;;;;;;;;;;;;;4963984;28;20303;-80
2023/11/11 02:21:10;;;;;;;;;;;;;;;;;;4961070;28;19927;-81
2023/11/11 02:23:36;;;;;;;;;;;;;;;;;;4961752;28;20568;-80
2023/11/11 02:26:03;;;;;;;;;;;;;;;;;;4961930;28;19926;-79
2023/11/11 02:28:30;;;;;;;;;;;;;;;;;;4960676;28;19934;-81
2023/11/11 02:30:56;;;;;;;;;;;;;;;;;;4960548;28;19926;-79
2023/11/11 02:33:24;;;;;;;;;;;;;;;;;;4956923;28;19965;-80
2023/11/11 02:35:51;;;;;;;;;;;;;;;;;;4961947;28;19930;-80
2023/11/11 02:38:17;;;;;;;;;;;;;;;;;;4944973;29;19930;-80
2023/11/11 02:40:44;;;;;;;;;;;;;;;;;;4958662;28;20414;-81
2023/11/11 02:43:11;;;;;;;;;;;;;;;;;;4953123;28;20256;-81
2023/11/11 02:45:38;;;;;;;;;;;;;;;;;;4956394;28;20405;-79
2023/11/11 02:48:05;;;;;;;;;;;;;;;;;;4955514;28;20340;-79
2023/11/11 02:50:33;;;;;;;;;;;;;;;;;;4951770;28;21783;-78
2023/11/11 02:53:00;;;;;;;;;;;;;;;;;;4950551;28;20021;-79
2023/11/11 02:55:27;;;;;;;;;;;;;;;;;;4958503;28;19934;-79
2023/11/11 02:57:53;;;;;;;;;;;;;;;;;;4959554;28;19926;-80
2023/11/11 03:00:21;;;;;;;;;;;;;;;;;;4959377;28;20399;-80
2023/11/11 03:02:47;;;;;;;;;;;;;;;;;;4950045;28;19930;-77
2023/11/11 03:05:14;;;;;;;;;;;;;;;;;;4946407;28;20387;-81
2023/11/11 03:07:40;;;;;;;;;;;;;;;;;;4945817;28;19926;-79
2023/11/11 03:10:07;;;;;;;;;;;;;;;;;;4959103;28;20016;-79
2023/11/11 03:12:33;;;;;;;;;;;;;;;;;;4963630;28;19972;-79
2023/11/11 03:15:00;;;;;;;;;;;;;;;;;;4961700;28;19966;-80
2023/11/11 03:17:26;;;;;;;;;;;;;;;;;;4967543;28;19970;-80
2023/11/11 03:19:53;;;;;;;;;;;;;;;;;;4950034;28;19927;-78
2023/11/11 03:22:20;;;;;;;;;;;;;;;;;;4950846;28;19926;-78
2023/11/11 03:24:46;;;;;;;;;;;;;;;;;;4951538;28;20029;-78
2023/11/11 03:27:13;;;;;;;;;;;;;;;;;;4962505;28;19958;-78
2023/11/11 03:29:39;;;;;;;;;;;;;;;;;;4959872;28;19945;-78
2023/11/11 03:32:07;;;;;;;;;;;;;;;;;;4959914;28;20455;-78
2023/11/11 03:34:33;;;;;;;;;;;;;;;;;;4953066;28;20418;-78
2023/11/11 03:37:00;;;;;;;;;;;;;;;;;;4950278;28;19926;-79
2023/11/11 03:39:26;;;;;;;;;;;;;;;;;;4966386;28;19926;-80
2023/11/11 03:41:52;;;;;;;;;;;;;;;;;;4939144;28;19974;-79
2023/11/11 03:44:19;;;;;;;;;;;;;;;;;;4959171;28;20282;-78
2023/11/11 03:46:47;;;;;;;;;;;;;;;;;;4950862;28;19972;-80
2023/11/11 03:49:13;;;;;;;;;;;;;;;;;;4957036;28;20287;-80
2023/11/11 03:51:42;;;;;;;;;;;;;;;;;;4958510;28;19978;-77
2023/11/11 03:54:08;;;;;;;;;;;;;;;;;;4940878;28;19934;-78
2023/11/11 03:56:35;;;;;;;;;;;;;;;;;;4961170;28;19934;-78
2023/11/11 03:59:02;;;;;;;;;;;;;;;;;;4954116;28;19926;-78
2023/11/11 04:01:28;;;;;;;;;;;;;;;;;;4950532;28;20013;-78
2023/11/11 04:03:55;;;;;;;;;;;;;;;;;;4960180;28;19949;-79
2023/11/11 04:06:21;;;;;;;;;;;;;;;;;;4946089;28;19934;-80
2023/11/11 04:08:48;;;;;;;;;;;;;;;;;;4949476;28;20447;-79
2023/11/11 04:11:14;;;;;;;;;;;;;;;;;;4953125;28;19931;-80
2023/11/11 04:13:41;;;;;;;;;;;;;;;;;;4944529;28;20055;-81
2023/11/11 04:16:09;;;;;;;;;;;;;;;;;;4955018;28;20413;-80
2023/11/11 04:18:36;;;;;;;;;;;;;;;;;;4965030;28;19937;-79
2023/11/11 04:21:02;;;;;;;;;;;;;;;;;;4960008;28;20346;-78
2023/11/11 04:23:28;;;;;;;;;;;;;;;;;;4949355;28;19927;-78
2023/11/11 04:25:56;;;;;;;;;;;;;;;;;;4960422;28;19938;-79
2023/11/11 04:28:22;;;;;;;;;;;;;;;;;;4951813;28;20331;-80
2023/11/11 04:30:49;;;;;;;;;;;;;;;;;;4940962;28;19965;-78
2023/11/11 04:33:16;;;;;;;;;;;;;;;;;;4954663;28;19931;-82
2023/11/11 04:35:43;;;;;;;;;;;;;;;;;;4962338;28;19933;-77
2023/11/11 04:38:10;;;;;;;;;;;;;;;;;;4953394;28;20286;-81
2023/11/11 04:40:36;;;;;;;;;;;;;;;;;;4955975;28;19927;-80
2023/11/11 04:43:03;;;;;;;;;;;;;;;;;;4957787;28;19965;-76
2023/11/11 04:45:30;;;;;;;;;;;;;;;;;;4958306;28;20000;-79
2023/11/11 04:47:56;;;;;;;;;;;;;;;;;;4955469;28;20454;-77
2023/11/11 04:50:23;;;;;;;;;;;;;;;;;;4958212;28;20353;-77
2023/11/11 04:52:49;;;;;;;;;;;;;;;;;;4957665;28;19926;-78
2023/11/11 04:55:15;;;;;;;;;;;;;;;;;;4959725;28;20379;-80
2023/11/11 04:57:42;;;;;;;;;;;;;;;;;;4959645;28;19969;-80
2023/11/11 05:00:13;;;;;;;;;;;;;;;;;;4959326;28;19997;-81
2023/11/11 05:02:39;;;;;;;;;;;;;;;;;;4956466;28;19931;-76
2023/11/11 05:05:06;;;;;;;;;;;;;;;;;;4962014;28;19969;-77
2023/11/11 05:07:32;;;;;;;;;;;;;;;;;;4953410;28;20460;-77
2023/11/11 05:09:59;;;;;;;;;;;;;;;;;;4949403;28;19926;-79
2023/11/11 05:12:26;;;;;;;;;;;;;;;;;;4934632;28;20054;-78
2023/11/11 05:14:54;;;;;;;;;;;;;;;;;;4960310;28;19981;-78
2023/11/11 05:17:25;;;;;;;;;;;;;;;;;;4956802;28;19931;-76
2023/11/11 05:19:58;;;;;;;;;;;;;;;;;;4958298;28;19931;-77
2023/11/11 05:22:25;;;;;;;;;;;;;;;;;;4965450;28;20029;-78
2023/11/11 05:24:52;;;;;;;;;;;;;;;;;;4956720;28;19970;-76
2023/11/11 05:27:18;;;;;;;;;;;;;;;;;;4963198;28;19965;-76
2023/11/11 05:29:44;;;;;;;;;;;;;;;;;;4965264;28;19926;-79
2023/11/11 05:32:11;;;;;;;;;;;;;;;;;;4960409;28;20000;-77
2023/11/11 05:34:38;;;;;;;;;;;;;;;;;;4956198;28;19961;-80
2023/11/11 05:37:05;;;;;;;;;;;;;;;;;;4957382;28;19986;-79
2023/11/11 05:39:31;;;;;;;;;;;;;;;;;;4953705;28;19930;-77
2023/11/11 05:41:58;;;;;;;;;;;;;;;;;;4960854;28;19926;-78
2023/11/11 05:44:24;;;;;;;;;;;;;;;;;;4950041;28;19958;-77
2023/11/11 05:46:50;;;;;;;;;;;;;;;;;;4951571;28;19973;-77
2023/11/11 05:49:17;;;;;;;;;;;;;;;;;;4945852;28;19981;-77
2023/11/11 05:51:45;;;;;;;;;;;;;;;;;;4958675;28;19961;-77
2023/11/11 05:54:12;;;;;;;;;;;;;;;;;;4948727;28;19926;-78
2023/11/11 05:56:38;;;;;;;;;;;;;;;;;;4954719;28;20029;-79
2023/11/11 05:59:06;;;;;;;;;;;;;;;;;;4955674;28;19970;-76
2023/11/11 06:01:32;;;;;;;;;;;;;;;;;;4941604;28;20021;-77
2023/11/11 06:03:59;;;;;;;;;;;;;;;;;;4966863;28;19982;-76
2023/11/11 06:06:25;;;;;;;;;;;;;;;;;;4962866;28;19927;-79
2023/11/11 06:08:52;;;;;;;;;;;;;;;;;;4960077;28;19927;-80
2023/11/11 06:11:18;;;;;;;;;;;;;;;;;;4961867;28;20443;-79
2023/11/11 06:13:45;;;;;;;;;;;;;;;;;;4966134;28;19933;-76
2023/11/11 06:16:12;;;;;;;;;;;;;;;;;;4958687;28;19954;-77
2023/11/11 06:18:38;;;;;;;;;;;;;;;;;;4957370;28;19933;-76
2023/11/11 06:21:08;;;;;;;;;;;;;;;;;;4963898;28;20608;-76
2023/11/11 06:23:34;;;;;;;;;;;;;;;;;;4960856;28;19926;-76
2023/11/11 06:26:05;;;;;;;;;;;;;;;;;;4962395;28;20446;-78
2023/11/11 06:28:32;;;;;;;;;;;;;;;;;;4965235;28;19926;-77
2023/11/11 06:30:58;;;;;;;;;;;;;;;;;;4965943;28;20350;-79
2023/11/11 06:33:25;;;;;;;;;;;;;;;;;;4949165;28;19933;-77
2023/11/11 06:35:51;;;;;;;;;;;;;;;;;;4963156;28;20302;-77
2023/11/11 06:38:18;;;;;;;;;;;;;;;;;;4963797;28;19937;-78
2023/11/11 06:40:45;;;;;;;;;;;;;;;;;;4959297;28;20038;-77
2023/11/11 06:43:11;;;;;;;;;;;;;;;;;;4949249;28;19927;-79
2023/11/11 06:45:39;;;;;;;;;;;;;;;;;;4962654;28;20021;-77
2023/11/11 06:48:06;;;;;;;;;;;;;;;;;;4962252;28;19968;-77
2023/11/11 06:50:32;;;;;;;;;;;;;;;;;;4956812;28;20046;-78
2023/11/11 06:52:59;;;;;;;;;;;;;;;;;;4956038;28;19982;-77
2023/11/11 06:55:27;;;;;;;;;;;;;;;;;;4962334;28;20017;-76
2023/11/11 06:57:54;;;;;;;;;;;;;;;;;;4954365;28;20025;-77
2023/11/11 07:00:20;;;;;;;;;;;;;;;;;;4950191;28;19934;-76
2023/11/11 07:02:47;;;;;;;;;;;;;;;;;;4944263;28;20025;-75
2023/11/11 07:05:14;;;;;;;;;;;;;;;;;;4944104;28;19933;-78
2023/11/11 07:07:41;;;;;;;;;;;;;;;;;;4945561;28;19927;-78
2023/11/11 07:10:09;;;;;;;;;;;;;;;;;;4944314;28;19926;-75
2023/11/11 07:12:35;;;;;;;;;;;;;;;;;;4943431;28;20391;-77
2023/11/11 07:15:03;;;;;;;;;;;;;;;;;;4956210;28;20366;-74
2023/11/11 07:17:29;;;;;;;;;;;;;;;;;;4955491;28;19978;-76
2023/11/11 07:19:56;;;;;;;;;;;;;;;;;;4978060;28;20075;-77
2023/11/11 07:22:23;;;;;;;;;;;;;;;;;;4942555;28;20021;-77
2023/11/11 07:24:52;;;;;;;;;;;;;;;;;;4946057;28;20383;-74
2023/11/11 07:27:19;;;;;;;;;;;;;;;;;;4959602;28;19934;-76
2023/11/11 07:29:46;;;;;;;;;;;;;;;;;;4946068;28;20397;-74
2023/11/11 07:32:13;;;;;;;;;;;;;;;;;;4953806;28;19982;-77
2023/11/11 07:34:40;;;;;;;;;;;;;;;;;;4958739;28;20326;-76
2023/11/11 07:37:07;;;;;;;;;;;;;;;;;;4943020;28;20038;-76
2023/11/11 07:39:33;;;;;;;;;;;;;;;;;;4946720;28;19927;-76
2023/11/11 07:42:00;;;;;;;;;;;;;;;;;;4964883;28;19926;-75
2023/11/11 07:44:27;;;;;;;;;;;;;;;;;;4960214;28;20425;-75
2023/11/11 07:46:53;;;;;;;;;;;;;;;;;;4960189;28;19930;-75
2023/11/11 07:49:20;;;;;;;;;;;;;;;;;;4963091;28;19949;-76
2023/11/11 07:51:46;;;;;;;;;;;;;;;;;;4960227;28;20004;-76
2023/11/11 07:54:12;;;;;;;;;;;;;;;;;;4957058;28;19961;-78
2023/11/11 07:56:40;;;;;;;;;;;;;;;;;;4950031;28;20399;-76
2023/11/11 07:59:07;;;;;;;;;;;;;;;;;;4940289;28;19953;-77
2023/11/11 08:01:36;;;;;;;;;;;;;;;;;;4952303;28;19931;-74
2023/11/11 08:04:02;;;;;;;;;;;;;;;;;;4947518;28;19930;-75
2023/11/11 08:06:29;;;;;;;;;;;;;;;;;;4959619;28;19930;-80
2023/11/11 08:08:55;;;;;;;;;;;;;;;;;;4961708;28;20383;-76
2023/11/11 08:11:22;;;;;;;;;;;;;;;;;;4959774;28;20013;-77
2023/11/11 08:13:48;;;;;;;;;;;;;;;;;;4949115;28;20284;-78
2023/11/11 08:16:18;;;;;;;;;;;;;;;;;;4960054;28;19927;-75
2023/11/11 08:18:45;;;;;;;;;;;;;;;;;;4955458;28;19926;-75
2023/11/11 08:21:13;;;;;;;;;;;;;;;;;;4965176;28;19937;-75
2023/11/11 08:23:40;;;;;;;;;;;;;;;;;;4951937;28;19994;-75
2023/11/11 08:26:06;;;;;;;;;;;;;;;;;;4950967;28;20291;-78
2023/11/11 08:28:33;;;;;;;;;;;;;;;;;;4941010;28;19934;-78
2023/11/11 08:31:00;;;;;;;;;;;;;;;;;;4962102;28;20024;-76
2023/11/11 08:33:29;;;;;;;;;;;;;;;;;;4934567;28;20616;-78
2023/11/11 08:35:56;;;;;;;;;;;;;;;;;;4945117;28;19980;-77
2023/11/11 08:38:22;;;;;;;;;;;;;;;;;;4961504;28;19930;-76
2023/11/11 08:40:51;;;;;;;;;;;;;;;;;;4955798;28;19969;-79
2023/11/11 08:43:17;;;;;;;;;;;;;;;;;;4954958;28;19934;-77
2023/11/11 08:45:44;;;;;;;;;;;;;;;;;;4958448;28;19929;-74
2023/11/11 08:48:10;;;;;;;;;;;;;;;;;;4957396;28;20029;-76
2023/11/11 08:50:37;;;;;;;;;;;;;;;;;;4947218;28;19930;-76
2023/11/11 08:53:03;;;;;;;;;;;;;;;;;;4925034;28;19927;-76
2023/11/11 08:55:30;;;;;;;;;;;;;;;;;;4961658;28;19969;-78
2023/11/11 08:57:56;;;;;;;;;;;;;;;;;;4950563;28;20396;-78
2023/11/11 09:00:24;;;;;;;;;;;;;;;;;;4936788;28;19986;-78
2023/11/11 09:02:51;;;;;;;;;;;;;;;;;;4953739;28;19927;-76
2023/11/11 09:05:18;;;;;;;;;;;;;;;;;;4945336;29;20719;-74
2023/11/11 09:07:44;;;;;;;;;;;;;;;;;;4936263;28;20014;-74
2023/11/11 09:10:11;;;;;;;;;;;;;;;;;;4945683;28;19930;-76
2023/11/11 09:12:38;;;;;;;;;;;;;;;;;;4960929;28;20025;-74
2023/11/11 09:15:05;;;;;;;;;;;;;;;;;;4964659;28;20025;-75
2023/11/11 09:17:31;;;;;;;;;;;;;;;;;;4961503;28;19981;-77
2023/11/11 09:19:58;;;;;;;;;;;;;;;;;;4962476;28;19937;-76
2023/11/11 09:22:25;;;;;;;;;;;;;;;;;;4955875;28;19930;-77
2023/11/11 09:24:51;;;;;;;;;;;;;;;;;;4959120;28;19949;-75
2023/11/11 09:27:18;;;;;;;;;;;;;;;;;;4933322;28;20025;-76
2023/11/11 09:29:45;;;;;;;;;;;;;;;;;;4956487;28;20379;-76
2023/11/11 09:32:11;;;;;;;;;;;;;;;;;;4960904;28;19985;-74
2023/11/11 09:34:39;;;;;;;;;;;;;;;;;;4950811;28;20434;-77
2023/11/11 09:37:06;;;;;;;;;;;;;;;;;;4954275;28;19969;-76
2023/11/11 09:39:33;;;;;;;;;;;;;;;;;;4954855;28;20447;-79
2023/11/11 09:41:59;;;;;;;;;;;;;;;;;;4951505;28;19933;-77
2023/11/11 09:44:26;;;;;;;;;;;;;;;;;;4956968;28;19931;-77
2023/11/11 09:46:55;;;;;;;;;;;;;;;;;;4958525;28;20040;-76
2023/11/11 09:49:22;;;;;;;;;;;;;;;;;;4944680;28;19938;-76
2023/11/11 09:51:48;;;;;;;;;;;;;;;;;;4961505;28;20346;-77
2023/11/11 09:54:15;;;;;;;;;;;;;;;;;;4938178;28;19933;-77
2023/11/11 09:56:42;;;;;;;;;;;;;;;;;;4946180;28;19934;-77
2023/11/11 09:59:11;;;;;;;;;;;;;;;;;;4956522;28;19926;-76
2023/11/11 10:01:38;;;;;;;;;;;;;;;;;;4954120;28;19935;-76
2023/11/11 10:04:06;;;;;;;;;;;;;;;;;;4942530;28;19927;-75
2023/11/11 10:06:32;;;;;;;;;;;;;;;;;;4947587;28;20035;-77
2023/11/11 10:08:58;;;;;;;;;;;;;;;;;;4969140;28;19935;-76
2023/11/11 10:11:27;;;;;;;;;;;;;;;;;;4954536;28;20020;-75
2023/11/11 10:13:54;;;;;;;;;;;;;;;;;;4955533;28;20277;-76
2023/11/11 10:16:25;;;;;;;;;;;;;;;;;;4938448;28;20427;-77
2023/11/11 10:18:51;;;;;;;;;;;;;;;;;;4962526;28;20025;-76
2023/11/11 10:21:20;;;;;;;;;;;;;;;;;;4950309;28;19930;-74
2023/11/11 10:23:47;;;;;;;;;;;;;;;;;;4957563;28;19927;-75
2023/11/11 10:26:15;;;;;;;;;;;;;;;;;;4954693;28;19965;-75
2023/11/11 10:28:42;;;;;;;;;;;;;;;;;;4961962;28;19977;-74
2023/11/11 10:31:08;;;;;;;;;;;;;;;;;;4956231;28;19934;-78
2023/11/11 10:33:45;;;;;;;;;;;;;;;;;;4947334;28;19930;-77
2023/11/11 10:36:13;;;;;;;;;;;;;;;;;;4964541;28;19929;-75
2023/11/11 10:38:41;;;;;;;;;;;;;;;;;;4943183;28;19926;-76
2023/11/11 10:41:07;;;;;;;;;;;;;;;;;;4955267;28;19974;-76
2023/11/11 10:43:34;;;;;;;;;;;;;;;;;;4961880;28;19933;-76
2023/11/11 10:46:00;;;;;;;;;;;;;;;;;;4963274;28;19930;-76
2023/11/11 10:48:26;;;;;;;;;;;;;;;;;;4956749;28;20021;-76
2023/11/11 10:50:53;;;;;;;;;;;;;;;;;;4951333;28;19934;-77
2023/11/11 10:53:19;;;;;;;;;;;;;;;;;;4965181;28;19976;-76
2023/11/11 10:55:49;;;;;;;;;;;;;;;;;;4965998;28;19954;-75
2023/11/11 10:58:19;;;;;;;;;;;;;;;;;;4958853;28;19977;-76
2023/11/11 11:00:46;;;;;;;;;;;;;;;;;;4973432;28;20580;-77
2023/11/11 11:03:12;;;;;;;;;;;;;;;;;;4963554;28;20328;-74
2023/11/11 11:05:39;;;;;;;;;;;;;;;;;;4965675;28;19966;-76
2023/11/11 11:08:06;;;;;;;;;;;;;;;;;;4953061;28;19927;-78
2023/11/11 11:10:32;;;;;;;;;;;;;;;;;;4956661;28;20406;-74
2023/11/11 11:12:59;;;;;;;;;;;;;;;;;;4956521;28;19946;-76
2023/11/11 11:15:26;;;;;;;;;;;;;;;;;;4963133;28;19969;-75
2023/11/11 11:17:52;;;;;;;;;;;;;;;;;;4955879;28;19930;-76
2023/11/11 11:20:24;;;;;;;;;;;;;;;;;;4958513;28;19934;-75
2023/11/11 11:22:52;;;;;;;;;;;;;;;;;;4962263;28;19965;-75
2023/11/11 11:25:18;;;;;;;;;;;;;;;;;;4963223;28;20382;-75
2023/11/11 11:27:45;;;;;;;;;;;;;;;;;;4970716;28;19930;-75
2023/11/11 11:30:11;;;;;;;;;;;;;;;;;;4968405;28;20025;-74
2023/11/11 11:32:39;;;;;;;;;;;;;;;;;;4958912;28;19927;-76
2023/11/11 11:35:05;;;;;;;;;;;;;;;;;;4956960;28;19961;-75
2023/11/11 11:37:32;;;;;;;;;;;;;;;;;;4956316;28;19979;-75
2023/11/11 11:39:58;;;;;;;;;;;;;;;;;;4962294;28;19930;-74
2023/11/11 11:42:25;;;;;;;;;;;;;;;;;;4953828;28;19926;-72
2023/11/11 11:44:51;;;;;;;;;;;;;;;;;;4958443;28;19934;-75
2023/11/11 11:47:18;;;;;;;;;;;;;;;;;;4955790;28;19930;-75
2023/11/11 11:49:44;;;;;;;;;;;;;;;;;;4957696;28;19974;-75
2023/11/11 11:52:10;;;;;;;;;;;;;;;;;;4960571;28;20017;-76
2023/11/11 11:54:37;;;;;;;;;;;;;;;;;;4965604;28;20009;-75
2023/11/11 11:57:03;;;;;;;;;;;;;;;;;;4953070;28;19934;-76
2023/11/11 11:59:31;;;;;;;;;;;;;;;;;;4961574;28;19930;-77
2023/11/11 12:01:57;;;;;;;;;;;;;;;;;;4959264;28;19927;-78
2023/11/11 12:04:24;;;;;;;;;;;;;;;;;;4960268;28;19926;-76
2023/11/11 12:06:52;;;;;;;;;;;;;;;;;;4955756;28;19993;-77
2023/11/11 12:09:19;;;;;;;;;;;;;;;;;;4961111;28;20295;-75
2023/11/11 12:11:45;;;;;;;;;;;;;;;;;;4960333;28;20025;-76
2023/11/11 12:14:13;;;;;;;;;;;;;;;;;;4945816;28;19926;-73
2023/11/11 12:16:40;;;;;;;;;;;;;;;;;;4954800;28;19926;-75
2023/11/11 12:19:07;;;;;;;;;;;;;;;;;;4963971;28;19930;-76
2023/11/11 12:21:34;;;;;;;;;;;;;;;;;;4963320;28;19926;-76
2023/11/11 12:24:00;;;;;;;;;;;;;;;;;;4945354;28;20344;-76
2023/11/11 12:26:28;;;;;;;;;;;;;;;;;;4953529;28;19934;-73
2023/11/11 12:28:55;;;;;;;;;;;;;;;;;;4962185;28;19933;-76
2023/11/11 12:31:22;;;;;;;;;;;;;;;;;;4956061;28;19926;-74
2023/11/11 12:33:51;;;;;;;;;;;;;;;;;;4949830;28;19981;-77
2023/11/11 12:36:18;;;;;;;;;;;;;;;;;;4955468;28;20387;-74
2023/11/11 12:38:46;;;;;;;;;;;;;;;;;;4961383;28;19926;-75
2023/11/11 12:41:14;;;;;;;;;;;;;;;;;;4950372;28;19930;-75
2023/11/11 12:43:40;;;;;;;;;;;;;;;;;;4952978;28;20283;-75
2023/11/11 12:46:07;;;;;;;;;;;;;;;;;;4963490;28;20492;-76
2023/11/11 12:48:34;;;;;;;;;;;;;;;;;;4948501;28;19926;-76
2023/11/11 12:51:00;;;;;;;;;;;;;;;;;;4946954;28;19930;-75
2023/11/11 12:53:27;;;;;;;;;;;;;;;;;;4959365;28;19926;-74
2023/11/11 12:55:53;;;;;;;;;;;;;;;;;;4945331;28;19927;-76
2023/11/11 12:58:25;;;;;;;;;;;;;;;;;;4962102;28;19926;-75
2023/11/11 13:00:55;;;;;;;;;;;;;;;;;;4935410;28;20011;-75
2023/11/11 13:03:25;;;;;;;;;;;;;;;;;;4958491;28;20342;-75
2023/11/11 13:05:52;;;;;;;;;;;;;;;;;;4949068;28;20383;-74
2023/11/11 13:08:21;;;;;;;;;;;;;;;;;;4942747;28;19934;-74
2023/11/11 13:10:47;;;;;;;;;;;;;;;;;;4952736;28;19973;-73
2023/11/11 13:13:15;;;;;;;;;;;;;;;;;;4954983;28;19927;-75
2023/11/11 13:15:42;;;;;;;;;;;;;;;;;;4940055;28;19927;-77
2023/11/11 13:18:08;;;;;;;;;;;;;;;;;;4956000;28;19926;-76
2023/11/11 13:20:35;;;;;;;;;;;;;;;;;;4957665;28;19930;-74
2023/11/11 13:23:01;;;;;;;;;;;;;;;;;;4948495;28;19934;-73
2023/11/11 13:25:28;;;;;;;;;;;;;;;;;;4966163;28;20430;-76
2023/11/11 13:27:54;;;;;;;;;;;;;;;;;;4955932;28;19927;-75
2023/11/11 13:30:22;;;;;;;;;;;;;;;;;;4956178;28;19978;-75
2023/11/11 13:32:48;;;;;;;;;;;;;;;;;;4960785;28;19973;-76
2023/11/11 13:35:16;;;;;;;;;;;;;;;;;;4965034;28;20294;-74
2023/11/11 13:37:46;;;;;;;;;;;;;;;;;;4955909;28;19931;-74
2023/11/11 13:40:29;;;;;;;;;;;;;;;;;;4958753;28;19930;-75
2023/11/11 13:42:56;;;;;;;;;;;;;;;;;;4954489;28;20397;-75
2023/11/11 13:45:24;;;;;;;;;;;;;;;;;;4959091;28;19926;-75
2023/11/11 13:47:55;;;;;;;;;;;;;;;;;;4941596;28;19931;-75
2023/11/11 13:50:24;;;;;;;;;;;;;;;;;;4953405;28;19927;-76
2023/11/11 13:52:50;;;;;;;;;;;;;;;;;;4953873;28;19930;-75
2023/11/11 13:55:17;;;;;;;;;;;;;;;;;;4972161;28;20539;-76
2023/11/11 13:57:45;;;;;;;;;;;;;;;;;;4958140;28;20009;-77
2023/11/11 14:00:14;;;;;;;;;;;;;;;;;;4942505;28;19930;-76
2023/11/11 14:02:41;;;;;;;;;;;;;;;;;;4945893;28;19965;-76
2023/11/11 14:05:07;;;;;;;;;;;;;;;;;;4958244;28;19927;-77
2023/11/11 14:07:35;;;;;;;;;;;;;;;;;;4954159;28;19930;-74
2023/11/11 14:10:04;;;;;;;;;;;;;;;;;;4940503;28;19985;-76
2023/11/11 14:12:35;;;;;;;;;;;;;;;;;;4954856;28;19933;-76
2023/11/11 14:15:02;;;;;;;;;;;;;;;;;;4959030;28;19930;-75
2023/11/11 14:17:30;;;;;;;;;;;;;;;;;;4947378;28;19982;-75
2023/11/11 14:19:59;;;;;;;;;;;;;;;;;;4963505;28;19930;-76
2023/11/11 14:22:29;;;;;;;;;;;;;;;;;;4950427;28;19933;-75
2023/11/11 14:24:56;;;;;;;;;;;;;;;;;;4965795;28;19926;-73
2023/11/11 14:27:22;;;;;;;;;;;;;;;;;;4956951;28;20010;-75
2023/11/11 14:29:48;;;;;;;;;;;;;;;;;;4946412;28;19934;-77
2023/11/11 14:32:19;;;;;;;;;;;;;;;;;;4956268;28;19930;-75
2023/11/11 14:34:45;;;;;;;;;;;;;;;;;;4956479;28;19931;-73
2023/11/11 14:37:12;;;;;;;;;;;;;;;;;;4955203;28;20013;-75
2023/11/11 14:39:39;;;;;;;;;;;;;;;;;;4949509;28;19930;-74
2023/11/11 14:42:05;;;;;;;;;;;;;;;;;;4950660;28;19926;-76
2023/11/11 14:44:32;;;;;;;;;;;;;;;;;;4962923;28;19992;-75
2023/11/11 14:46:58;;;;;;;;;;;;;;;;;;4966784;28;19974;-75
2023/11/11 14:49:27;;;;;;;;;;;;;;;;;;4956397;28;19950;-76
2023/11/11 14:51:55;;;;;;;;;;;;;;;;;;4957724;28;19926;-75
2023/11/11 14:54:21;;;;;;;;;;;;;;;;;;4953163;28;20054;-78
2023/11/11 14:56:48;;;;;;;;;;;;;;;;;;4945121;28;19927;-74
2023/11/11 14:59:14;;;;;;;;;;;;;;;;;;4964599;28;20045;-75
2023/11/11 15:01:40;;;;;;;;;;;;;;;;;;4956718;28;19981;-74
2023/11/11 15:04:07;;;;;;;;;;;;;;;;;;4958576;28;19927;-76
2023/11/11 15:06:34;;;;;;;;;;;;;;;;;;4960029;28;19926;-75
2023/11/11 15:09:00;;;;;;;;;;;;;;;;;;4960531;28;19934;-77
2023/11/11 15:11:27;;;;;;;;;;;;;;;;;;4945671;28;19927;-75
2023/11/11 15:13:53;;;;;;;;;;;;;;;;;;4954530;28;19981;-77
2023/11/11 15:16:21;;;;;;;;;;;;;;;;;;4962852;28;19939;-74
2023/11/11 15:18:48;;;;;;;;;;;;;;;;;;4960180;28;19965;-76
2023/11/11 15:21:16;;;;;;;;;;;;;;;;;;4949009;28;19934;-75
2023/11/11 15:23:42;;;;;;;;;;;;;;;;;;4937000;28;19927;-76
2023/11/11 15:26:09;;;;;;;;;;;;;;;;;;4957230;28;19926;-75
2023/11/11 15:28:36;;;;;;;;;;;;;;;;;;4950470;28;19930;-76
2023/11/11 15:31:04;;;;;;;;;;;;;;;;;;4965894;28;19926;-76
2023/11/11 15:33:30;;;;;;;;;;;;;;;;;;4957989;28;19934;-77
2023/11/11 15:35:56;;;;;;;;;;;;;;;;;;4969836;28;19927;-74
2023/11/11 15:38:23;;;;;;;;;;;;;;;;;;4957646;28;19941;-77
2023/11/11 15:40:50;;;;;;;;;;;;;;;;;;4949579;28;20276;-75
2023/11/11 15:43:18;;;;;;;;;;;;;;;;;;4959928;28;19926;-76
2023/11/11 15:45:44;;;;;;;;;;;;;;;;;;4963725;28;19927;-75
2023/11/11 15:48:10;;;;;;;;;;;;;;;;;;4971541;28;20006;-76
2023/11/11 15:50:37;;;;;;;;;;;;;;;;;;4951986;28;19931;-76
2023/11/11 15:53:05;;;;;;;;;;;;;;;;;;4944584;28;19931;-77
2023/11/11 15:55:32;;;;;;;;;;;;;;;;;;4959953;28;19946;-74
2023/11/11 15:57:58;;;;;;;;;;;;;;;;;;4946543;28;19930;-76
2023/11/11 16:00:27;;;;;;;;;;;;;;;;;;4948279;28;20307;-75
2023/11/11 16:02:54;;;;;;;;;;;;;;;;;;4959436;28;19927;-73
2023/11/11 16:05:21;;;;;;;;;;;;;;;;;;4950253;28;20486;-75
2023/11/11 16:07:47;;;;;;;;;;;;;;;;;;4962185;28;19926;-76
2023/11/11 16:10:14;;;;;;;;;;;;;;;;;;4960998;28;20356;-77
2023/11/11 16:12:40;;;;;;;;;;;;;;;;;;4955650;28;19931;-76
2023/11/11 16:15:07;;;;;;;;;;;;;;;;;;4962559;28;19930;-75
2023/11/11 16:17:33;;;;;;;;;;;;;;;;;;4966187;28;19934;-75
2023/11/11 16:20:00;;;;;;;;;;;;;;;;;;4960451;28;19938;-76
2023/11/11 16:22:27;;;;;;;;;;;;;;;;;;4959860;28;19926;-75
2023/11/11 16:24:54;;;;;;;;;;;;;;;;;;4947526;28;19927;-76
2023/11/11 16:27:20;;;;;;;;;;;;;;;;;;4946803;28;20016;-75
2023/11/11 16:29:48;;;;;;;;;;;;;;;;;;4966658;28;19926;-76
2023/11/11 16:32:17;;;;;;;;;;;;;;;;;;4953491;28;20273;-78
2023/11/11 16:34:43;;;;;;;;;;;;;;;;;;4953403;28;19926;-75
2023/11/11 16:37:10;;;;;;;;;;;;;;;;;;4959433;28;19927;-76
2023/11/11 16:39:36;;;;;;;;;;;;;;;;;;4962076;28;19952;-75
2023/11/11 16:42:03;;;;;;;;;;;;;;;;;;4954974;28;19927;-76
2023/11/11 16:44:29;;;;;;;;;;;;;;;;;;4943947;28;19962;-74